LKMTLZTT

Guest
Details From LKMT - Mosnov
To LZTT - Tatry
Flight Number -
Tags Generated
Created
Modified
Stats Distance 91 nm / 169 km
Max Altitude 0 ft / 0 m
Waypoints 2
Social Downloads 0
Likes 0
Share VATSIM

Download

Looking for another format? Having issues loading an existing format? Contact us
Advertisement - Login to hide

Notes

Generated

Route

LKMT LZTT

ID Type Via Altitude Latitude Longitude Leg Dist Tot Dist Heading (true) Name
O LKMT APT - 0 ft / 0 m 49.68532˚ 18.09325˚ - 0 nm - -
O LZTT APT - 0 ft / 0 m 49.07443˚ 20.22347˚ 91 nm 91 nm 113° / 115° -

Altitude Profile

Advertisement - Login to hide

LKMT

Details ICAO LKMT (OSR)
Name Ostrava Mosnov
Region Czech Republic
Timezone Europe/Prague (UTC+2.0)
Stats Elevation 843 ft / 257 m (AMSL)
Location 49.696217° 18.110855°
Runways 1
Magnetic Variation 4.818° E

METAR

LKMT 251230Z 03011KT 360V070 CAVOK 24/10 Q1017 NOSIG

Decode

TAF

TAF TAF LKMT 251100Z 2512/2618 03010KT CAVOK BECMG 2518/2521 VRB02KT BECMG 2600/2602 3000 BR NSC BECMG 2607/2609 02007KT CAVOK TEMPO 2609/2615 9999 SCT050TCU

Decode

Departure Runways

ID Width Length Bearing (true) Bearing (mag) Surface Threshold Offset Overrun Length
04 207 ft / 63 m 11,532 ft / 3,515 m 46.29° 41.47° Concrete 0 ft / 0 m 52 ft / 16 m
22 207 ft / 63 m 11,532 ft / 3,515 m 226.31° 221.49° Concrete 0 ft / 0 m 49 ft / 15 m

LZTT

Details ICAO LZTT (TAT)
Name POPRAD TATRY
Region Slovakia
Timezone Europe/Bratislava (UTC+2.0)
Stats Elevation 2,355 ft / 718 m (AMSL)
Location 49.072159° 20.241258°
Runways 2
Magnetic Variation 5.223° E

METAR

LZTT 251230Z 05005KT 9999 FEW020 BKN040 15/12 Q1019 RESHRA NOSIG

Decode

TAF

Not found

Destination Runways

ID Width Length Bearing (true) Bearing (mag) Surface Threshold Offset Overrun Length
07 269 ft / 82 m 2,492 ft / 760 m 73.54° 68.32° Grass 0 ft / 0 m 0 ft / 0 m
09 148 ft / 45 m 8,478 ft / 2,584 m 94.19° 88.97° Concrete 0 ft / 0 m 0 ft / 0 m
25 269 ft / 82 m 2,492 ft / 760 m 253.55° 248.33° Grass 0 ft / 0 m 0 ft / 0 m
27 148 ft / 45 m 8,478 ft / 2,584 m 274.21° 268.99° Concrete 0 ft / 0 m 0 ft / 0 m

Approach Navaids

Runway Type Ident Frequency Range Bearing (true) Bearing (mag) Slope Elevation
27 Localiser TT 110.10 MHz 18 nm / 33 km 274.21° 268.98° - 2,279 ft / 695 m (AMSL)
27 Glidescope TT 110.10 MHz 10 nm / 19 km 274.20° 268.98° 3.50° 2,279 ft / 695 m (AMSL)

Popular Alternatives